PDT,Max TemperatureF,Mean TemperatureF,Min TemperatureF,Max Dew PointF,MeanDew PointF,Min DewpointF,Max Humidity, Mean Humidity, Min Humidity, Max Sea Level PressureIn, Mean Sea Level PressureIn, Min Sea Level PressureIn, Max VisibilityMiles, Mean VisibilityMiles, Min VisibilityMiles, Max Wind SpeedMPH, Mean Wind SpeedMPH, Max Gust SpeedMPH,PrecipitationIn, CloudCover, Events, WindDirDegrees
2013-3-1,68,52,37,45,40,36,93,72,42,30.42,30.36,30.26,10,10,10,5,1,,0.00,1,,93
2013-3-2,66,55,44,50,45,41,93,70,49,30.25,30.16,30.06,10,10,10,5,1,,0.00,5,,60
2013-3-3,62,56,50,50,48,46,87,76,63,30.06,30.03,30.01,10,10,10,10,5,,0.00,6,,161
2013-3-4,62,50,37,48,45,37,100,84,59,30.14,30.08,30.03,10,8,3,10,5,,0.00,3,,182
2013-3-5,59,49,39,41,40,37,93,74,45,30.05,29.97,29.86,10,10,10,16,7,18,0.00,6,Rain,164
2013-3-6,55,50,44,45,40,36,93,70,47,30.07,29.99,29.86,10,9,7,20,13,25,0.00,6,Rain,172
2013-3-7,55,44,33,41,37,32,100,72,44,30.00,29.93,29.88,10,10,10,7,3,,0.00,5,,54
2013-3-8,60,48,37,41,38,36,93,76,39,30.03,29.88,29.82,10,10,10,12,4,,0.00,2,,255
2013-3-9,68,52,37,41,34,25,93,63,20,30.26,30.19,30.05,10,10,10,16,7,24,0.00,0,,3
2013-3-10,62,48,35,45,39,30,87,57,42,30.37,30.31,30.26,10,10,10,7,3,,0.00,2,,161
2013-3-11,68,52,37,46,42,37,100,66,40,30.27,30.17,30.10,10,10,10,7,2,,0.00,1,,137
2013-3-12,73,56,39,46,44,39,100,69,33,30.17,30.11,30.06,10,10,10,5,2,,0.00,2,,96
2013-3-13,75,58,42,50,47,41,100,70,36,30.18,30.13,30.07,10,10,10,7,0,,0.00,3,,337
2013-3-14,77,62,46,52,48,45,100,69,34,30.15,30.10,30.07,10,10,10,12,1,,0.00,4,,232
2013-3-15,73,58,44,50,46,41,100,77,31,30.10,30.07,30.00,10,10,10,8,1,,0.00,4,,271
2013-3-16,73,57,41,50,44,30,100,71,20,30.22,30.03,29.98,10,10,10,10,2,,0.00,2,,196
2013-3-17,68,54,41,41,35,30,81,44,26,30.13,30.07,30.01,10,10,10,10,3,,0.00,2,,301
2013-3-18,66,52,37,45,40,36,93,57,35,30.10,30.06,30.02,10,10,10,7,3,,0.00,5,,206
2013-3-19,66,54,41,48,44,39,100,69,40,30.15,30.09,30.05,10,10,7,8,4,,0.00,6,Rain,149
2013-3-20,59,54,48,55,52,48,100,93,67,30.12,30.10,30.08,10,6,2,12,5,18,0.00,7,Rain,138
2013-3-21,64,52,41,52,41,25,100,73,22,30.11,30.07,29.99,10,9,5,15,6,21,0.00,3,,318
2013-3-22,62,52,41,39,24,10,81,39,14,30.09,30.05,30.00,10,10,10,26,13,33,0.00,0,,322
2013-3-23,66,50,35,30,27,21,70,43,18,30.15,30.08,30.03,10,10,10,9,6,,0.00,1,,324
2013-3-24,71,54,37,41,35,30,87,50,23,30.09,30.03,29.94,10,10,10,7,2,,0.00,1,,221
2013-3-25,66,52,39,46,42,37,93,65,43,30.00,29.96,29.91,10,10,10,16,6,22,0.00,5,,175
2013-3-26,68,54,39,46,44,39,100,74,43,30.00,29.95,29.91,10,10,10,10,7,,0.00,3,,160
2013-3-27,68,54,41,50,46,39,100,72,52,30.02,29.96,29.94,10,10,10,16,8,21,0.00,4,,181
2013-3-28,68,60,51,50,49,46,94,72,49,30.10,30.06,30.03,10,10,8,9,3,,0.00,6,,271
2013-3-29,75,62,48,50,46,43,94,62,34,30.11,30.06,30.00,10,10,10,7,4,,0.00,2,,341
2013-3-30,73,60,46,52,47,45,100,70,43,30.04,30.00,29.96,10,10,10,15,4,,0.00,4,,205
2013-3-31,68,60,53,54,50,45,100,72,46,30.10,30.05,29.99,10,9,3,18,6,22,0.00,6,Rain,179